Hovedside
METAR-TAF:

METAR-TAF

Lufthavner :

Kittilä lufthavn

Kittilä, Finland

breddegrad: 67-42N, lengdegrad: 024-51E, høyde over havet: 196 m

Gjeldene værobservasjon

Denne rapporten ble laget for 12 minutter siden, klokken 12:50 UTC
Vind 5 kt fra Sørvest, skiftende mellom Sør-sørøst og Vest
Temperatur 16°C
Luftfuktighet 42%
Trykk 1012 hPa
Sikt 10 km eller mer
ingen skyer under 1500 m og ingen bygeskyer

METAR: EFKT 151250Z AUTO 22005KT 160V280 CAVOK 16/03 Q1012

Tid: 16:02 (13:02 UTC)

Varsel

Denne rapporten ble laget for 1 time og 34 minutter siden, klokken 11:28 UTC
Varsel gyldig fra 15. klokken 12 UTC til 15. klokken 17 UTC
Vind 6 kt fra Vest-sørvest
Sikt 10 km eller mer
Spredte skyer i en høyde av 4000 ft
Midlertidig
fra 15. klokken 12 UTC til 15. klokken 17 UTC
Spredte skyer i en høyde av 4000 ft, Tårnskyer (cumulus).

TAF: EFKT 151128Z 1512/1517 24006KT 9999 SCT040 TEMPO 1512/1517 SCT040TCU

Værobservasjoner og værvarsel for over 4000 flyplasser (METAR- og TAF-rapporter).

Tilgjengelige stasjoner er representert av de røde og gule prikkene på kartet.

Hold musepekeren over prikken for å se navnet på stasjonen.

Klikk så for å se værobservasjoner og -varsler.

For å forandre kartet kan du klikke på den grønne knappen med svart kryss for å zoome inn, på den grønne knappen med strek for å zoome ut, eller på de grønne pilene for å se tilstøtende kart.


METAR-TAF: